Flight Track Log - Related Links

Times and Time Zones

All times are in EDT time to prevent confusion due to time zone crossing. See the RPA4937 flight status page for this flight to view local times or setup timezone preferences in your user account.

Time Position Orientation Groundspeed Altitude Reporting Facility
EDT Latitude Longitude Course Direction KTS MPH feet Rate Location/Type
Fri 05:47:17 AM 39.1667 -76.6000 46° Northeast 184 212 2,600  Level Potomac TRACON
Fri 05:48:17 AM 39.1667 -76.5167 90° East 212 244 4,900 2,300 Climbing Potomac TRACON
Fri 05:49:00 AM 39.1500 -76.3162 90° East  Level FlightAware
Fri 05:49:17 AM 39.1833 -76.4500 72° East 234 269 7,200  Level Potomac TRACON
Fri 05:50:00 AM 39.1605 -76.2027 46° Northeast  Level FlightAware
Fri 05:50:17 AM 39.2333 -76.3833 46° Northeast 230 265 9,700  Level Potomac TRACON
Fri 05:51:00 AM 39.2280 -76.1220 38° Northeast  Level FlightAware
Fri 05:51:17 AM 39.2667 -76.3167 57° Northeast 252 290 11,100  Level Potomac TRACON
Fri 05:52:00 AM 39.2948 -76.0403 46° Northeast  Level FlightAware
Fri 05:53:31 AM 39.3667 -76.1333 55° Northeast 282 325 11,000  Level Philadelphia TRACON
Fri 05:54:37 AM 39.4167 -76.0500 52° Northeast 285 328 11,000  Level Philadelphia TRACON
Fri 05:55:38 AM 39.4667 -75.9667 52° Northeast 285 328 11,000  Level Philadelphia TRACON
Fri 05:56:44 AM 39.5167 -75.8833 52° Northeast 285 328 11,000  Level Philadelphia TRACON
Fri 05:57:32 AM 39.5667 -75.8167 46° Northeast 283 326 11,000  Level Philadelphia TRACON
Fri 05:58:32 AM 39.6000 -75.7333 63° Northeast 281 323 11,000  Level Philadelphia TRACON
Fri 05:59:32 AM 39.6500 -75.6333 57° Northeast 276 318 11,000  Level Philadelphia TRACON
Fri 06:00:20 AM 39.6667 -75.5667 72° East 276 318 11,000  Level Philadelphia TRACON
Fri 06:01:26 AM 39.7167 -75.4833 52° Northeast 275 316 11,000  Level Philadelphia TRACON
Fri 06:02:32 AM 39.7500 -75.3833 67° East 275 316 11,000 -238 Level Philadelphia TRACON
Fri 06:03:32 AM 39.8000 -75.3000 52° Northeast 279 321 10,500 -500 Descending Philadelphia TRACON
Fri 06:04:32 AM 39.8333 -75.2000 67° East 284 327 10,000 -238 Descending Philadelphia TRACON
Fri 06:05:38 AM 39.8667 -75.1167 62° Northeast 272 313 10,000  Level Philadelphia TRACON
Fri 06:06:32 AM 39.9000 -75.0333 62° Northeast 265 305 10,000 -368 Level Philadelphia TRACON
Fri 06:07:32 AM 39.9333 -74.9500 62° Northeast 231 266 9,300 -750 Descending Philadelphia TRACON
Fri 06:08:32 AM 39.9667 -74.8833 57° Northeast 233 268 8,500 -741 Descending Philadelphia TRACON
Fri 06:08:53 AM 39.9833 -74.8667 37° Northeast 235 270 8,300 -800 Descending New TRACON
Fri 06:09:47 AM 40.0167 -74.8000 57° Northeast 240 276 7,500 -600 Descending New TRACON
Fri 06:10:53 AM 40.0500 -74.7167 62° Northeast 241 277 7,100 -238 Descending New TRACON
Fri 06:11:53 AM 40.1000 -74.6500 46° Northeast 246 283 7,000 -50 Descending New TRACON
Fri 06:12:53 AM 40.1500 -74.5833 46° Northeast 242 278 7,000  Level New TRACON
Fri 06:13:47 AM 40.1833 -74.5167 57° Northeast 240 276 7,000 -474 Level New TRACON
Fri 06:14:47 AM 40.2333 -74.4500 45° Northeast 241 277 6,100 -950 Descending New TRACON
Fri 06:15:47 AM 40.2833 -74.4167 27° Northeast 233 268 5,100 -579 Descending New TRACON
Fri 06:16:41 AM 40.3333 -74.4000 14° North 228 262 5,000 -56 Descending New TRACON
Fri 06:17:35 AM 40.3833 -74.3667 27° Northeast 219 252 5,000 -333 Level New TRACON
Fri 06:18:29 AM 40.4333 -74.3333 27° Northeast 218 251 4,400 -850 Descending New TRACON
Fri 06:19:35 AM 40.4833 -74.3000 27° Northeast 176 203 3,300 -667 Descending New TRACON
Fri 06:20:35 AM 40.5333 -74.2667 27° Northeast 158 182 3,000 -300 Descending New TRACON
Fri 06:21:35 AM 40.5667 -74.2500 21° North 134 154 2,700 -474 Descending New TRACON
Fri 06:22:29 AM 40.6000 -74.2333 21° North 123 142 2,100 -667 Descending New TRACON

Login

Don't have an account? Register now (free) for customized features, flight alerts, and more!